sensor_id;sensor_type;location;lat;lon;timestamp;P1;durP1;ratioP1;P2;durP2;ratioP2
50769;SDS011;36740;48.698;11.472;2024-01-27T00:01:59;2.55;;;2.13;;
50769;SDS011;36740;48.698;11.472;2024-01-27T00:04:45;10.80;;;3.90;;
50769;SDS011;36740;48.698;11.472;2024-01-27T00:07:30;3.63;;;2.38;;
50769;SDS011;36740;48.698;11.472;2024-01-27T00:10:16;7.05;;;3.72;;
50769;SDS011;36740;48.698;11.472;2024-01-27T00:13:02;4.32;;;2.08;;
50769;SDS011;36740;48.698;11.472;2024-01-27T00:15:48;17.30;;;2.78;;
50769;SDS011;36740;48.698;11.472;2024-01-27T00:18:35;4.18;;;2.55;;
50769;SDS011;36740;48.698;11.472;2024-01-27T00:21:22;8.18;;;3.13;;
50769;SDS011;36740;48.698;11.472;2024-01-27T00:24:07;6.65;;;3.25;;
50769;SDS011;36740;48.698;11.472;2024-01-27T00:26:53;3.22;;;2.75;;
50769;SDS011;36740;48.698;11.472;2024-01-27T00:29:39;6.65;;;2.30;;
50769;SDS011;36740;48.698;11.472;2024-01-27T00:32:25;8.00;;;3.00;;
50769;SDS011;36740;48.698;11.472;2024-01-27T00:35:11;4.75;;;2.92;;
50769;SDS011;36740;48.698;11.472;2024-01-27T00:37:59;9.10;;;3.58;;
50769;SDS011;36740;48.698;11.472;2024-01-27T00:40:45;6.03;;;2.60;;
50769;SDS011;36740;48.698;11.472;2024-01-27T00:43:31;16.15;;;3.20;;
50769;SDS011;36740;48.698;11.472;2024-01-27T00:46:17;4.03;;;2.58;;
50769;SDS011;36740;48.698;11.472;2024-01-27T00:49:03;8.55;;;2.53;;
50769;SDS011;36740;48.698;11.472;2024-01-27T00:51:49;6.53;;;2.80;;
50769;SDS011;36740;48.698;11.472;2024-01-27T00:54:34;9.45;;;3.70;;
50769;SDS011;36740;48.698;11.472;2024-01-27T00:57:21;9.27;;;3.72;;
50769;SDS011;36740;48.698;11.472;2024-01-27T01:00:08;10.23;;;3.95;;
50769;SDS011;36740;48.698;11.472;2024-01-27T01:02:54;4.65;;;3.03;;
50769;SDS011;36740;48.698;11.472;2024-01-27T01:05:40;4.07;;;2.15;;
50769;SDS011;36740;48.698;11.472;2024-01-27T01:08:26;13.48;;;3.38;;
50769;SDS011;36740;48.698;11.472;2024-01-27T01:11:12;2.47;;;1.70;;
50769;SDS011;36740;48.698;11.472;2024-01-27T01:13:57;4.38;;;2.53;;
50769;SDS011;36740;48.698;11.472;2024-01-27T01:16:44;12.88;;;3.42;;
50769;SDS011;36740;48.698;11.472;2024-01-27T01:19:29;5.75;;;3.00;;
50769;SDS011;36740;48.698;11.472;2024-01-27T01:22:15;2.92;;;2.20;;
50769;SDS011;36740;48.698;11.472;2024-01-27T01:25:01;7.03;;;2.72;;
50769;SDS011;36740;48.698;11.472;2024-01-27T01:27:47;9.73;;;2.83;;
50769;SDS011;36740;48.698;11.472;2024-01-27T01:30:35;11.80;;;2.88;;
50769;SDS011;36740;48.698;11.472;2024-01-27T01:33:21;3.67;;;2.72;;
50769;SDS011;36740;48.698;11.472;2024-01-27T01:36:07;6.43;;;3.83;;
50769;SDS011;36740;48.698;11.472;2024-01-27T01:38:53;4.80;;;2.47;;
50769;SDS011;36740;48.698;11.472;2024-01-27T01:41:39;5.80;;;2.85;;
50769;SDS011;36740;48.698;11.472;2024-01-27T01:44:29;5.88;;;3.13;;
50769;SDS011;36740;48.698;11.472;2024-01-27T01:47:17;4.32;;;3.13;;
50769;SDS011;36740;48.698;11.472;2024-01-27T01:50:05;3.30;;;2.53;;
50769;SDS011;36740;48.698;11.472;2024-01-27T01:52:51;9.88;;;2.88;;
50769;SDS011;36740;48.698;11.472;2024-01-27T01:55:38;16.10;;;4.00;;
50769;SDS011;36740;48.698;11.472;2024-01-27T01:58:24;6.47;;;3.08;;
50769;SDS011;36740;48.698;11.472;2024-01-27T02:01:10;7.07;;;3.25;;
50769;SDS011;36740;48.698;11.472;2024-01-27T02:03:56;5.25;;;3.17;;
50769;SDS011;36740;48.698;11.472;2024-01-27T02:06:42;8.35;;;3.65;;
50769;SDS011;36740;48.698;11.472;2024-01-27T02:09:28;14.20;;;3.75;;
50769;SDS011;36740;48.698;11.472;2024-01-27T02:12:16;8.38;;;3.15;;
50769;SDS011;36740;48.698;11.472;2024-01-27T02:15:01;30.80;;;4.55;;
50769;SDS011;36740;48.698;11.472;2024-01-27T02:17:47;7.38;;;3.85;;
50769;SDS011;36740;48.698;11.472;2024-01-27T02:20:33;2.72;;;2.17;;
50769;SDS011;36740;48.698;11.472;2024-01-27T02:23:19;7.82;;;4.28;;
50769;SDS011;36740;48.698;11.472;2024-01-27T02:26:04;5.97;;;2.83;;
50769;SDS011;36740;48.698;11.472;2024-01-27T02:28:50;20.98;;;3.58;;
50769;SDS011;36740;48.698;11.472;2024-01-27T02:31:36;9.98;;;3.80;;
50769;SDS011;36740;48.698;11.472;2024-01-27T02:34:22;4.03;;;2.83;;
50769;SDS011;36740;48.698;11.472;2024-01-27T02:37:08;7.18;;;3.22;;
50769;SDS011;36740;48.698;11.472;2024-01-27T02:39:54;5.97;;;3.00;;
50769;SDS011;36740;48.698;11.472;2024-01-27T02:42:40;5.35;;;2.70;;
50769;SDS011;36740;48.698;11.472;2024-01-27T02:45:29;5.78;;;2.50;;
50769;SDS011;36740;48.698;11.472;2024-01-27T02:48:15;7.70;;;3.05;;
50769;SDS011;36740;48.698;11.472;2024-01-27T02:51:04;3.08;;;2.78;;
50769;SDS011;36740;48.698;11.472;2024-01-27T02:53:50;10.40;;;5.65;;
50769;SDS011;36740;48.698;11.472;2024-01-27T02:56:35;8.52;;;3.92;;
50769;SDS011;36740;48.698;11.472;2024-01-27T02:59:21;5.60;;;2.70;;
50769;SDS011;36740;48.698;11.472;2024-01-27T03:02:07;7.80;;;3.45;;
50769;SDS011;36740;48.698;11.472;2024-01-27T03:04:53;11.80;;;3.65;;
50769;SDS011;36740;48.698;11.472;2024-01-27T03:07:39;8.43;;;3.33;;
50769;SDS011;36740;48.698;11.472;2024-01-27T03:10:25;4.28;;;3.40;;
50769;SDS011;36740;48.698;11.472;2024-01-27T03:13:11;4.63;;;2.65;;
50769;SDS011;36740;48.698;11.472;2024-01-27T03:15:57;14.25;;;4.43;;
50769;SDS011;36740;48.698;11.472;2024-01-27T03:18:43;7.88;;;3.10;;
50769;SDS011;36740;48.698;11.472;2024-01-27T03:21:29;12.32;;;3.05;;
50769;SDS011;36740;48.698;11.472;2024-01-27T03:24:14;6.72;;;3.38;;
50769;SDS011;36740;48.698;11.472;2024-01-27T03:27:00;4.93;;;2.50;;
50769;SDS011;36740;48.698;11.472;2024-01-27T03:29:46;15.35;;;4.07;;
50769;SDS011;36740;48.698;11.472;2024-01-27T03:32:32;4.07;;;2.55;;
50769;SDS011;36740;48.698;11.472;2024-01-27T03:35:18;7.50;;;2.92;;
50769;SDS011;36740;48.698;11.472;2024-01-27T03:38:05;7.07;;;3.20;;
50769;SDS011;36740;48.698;11.472;2024-01-27T03:40:51;3.80;;;2.80;;
50769;SDS011;36740;48.698;11.472;2024-01-27T03:43:36;9.02;;;3.28;;
50769;SDS011;36740;48.698;11.472;2024-01-27T03:46:22;4.03;;;1.98;;
50769;SDS011;36740;48.698;11.472;2024-01-27T03:49:08;6.07;;;3.80;;
50769;SDS011;36740;48.698;11.472;2024-01-27T03:51:54;7.10;;;3.28;;
50769;SDS011;36740;48.698;11.472;2024-01-27T03:54:39;6.68;;;3.17;;
50769;SDS011;36740;48.698;11.472;2024-01-27T03:57:25;5.45;;;3.15;;
50769;SDS011;36740;48.698;11.472;2024-01-27T04:00:11;4.80;;;2.67;;
50769;SDS011;36740;48.698;11.472;2024-01-27T04:02:58;7.70;;;2.38;;
50769;SDS011;36740;48.698;11.472;2024-01-27T04:05:46;6.30;;;3.60;;
50769;SDS011;36740;48.698;11.472;2024-01-27T04:08:32;10.30;;;4.18;;
50769;SDS011;36740;48.698;11.472;2024-01-27T04:11:21;7.55;;;2.50;;
50769;SDS011;36740;48.698;11.472;2024-01-27T04:14:07;6.18;;;3.15;;
50769;SDS011;36740;48.698;11.472;2024-01-27T04:16:53;7.05;;;3.10;;
50769;SDS011;36740;48.698;11.472;2024-01-27T04:19:39;8.82;;;4.63;;
50769;SDS011;36740;48.698;11.472;2024-01-27T04:22:24;10.90;;;3.55;;
50769;SDS011;36740;48.698;11.472;2024-01-27T04:25:10;18.08;;;2.90;;
50769;SDS011;36740;48.698;11.472;2024-01-27T04:27:56;8.65;;;2.95;;
50769;SDS011;36740;48.698;11.472;2024-01-27T04:30:42;4.97;;;2.90;;
50769;SDS011;36740;48.698;11.472;2024-01-27T04:33:27;8.35;;;2.90;;
50769;SDS011;36740;48.698;11.472;2024-01-27T04:36:13;8.30;;;3.30;;
50769;SDS011;36740;48.698;11.472;2024-01-27T04:38:59;10.52;;;2.90;;
50769;SDS011;36740;48.698;11.472;2024-01-27T04:41:45;9.50;;;2.97;;
50769;SDS011;36740;48.698;11.472;2024-01-27T04:44:31;13.48;;;3.08;;
50769;SDS011;36740;48.698;11.472;2024-01-27T04:47:17;8.30;;;3.17;;
50769;SDS011;36740;48.698;11.472;2024-01-27T04:50:04;3.95;;;2.50;;
50769;SDS011;36740;48.698;11.472;2024-01-27T04:52:50;8.48;;;3.55;;
50769;SDS011;36740;48.698;11.472;2024-01-27T04:55:35;5.68;;;3.40;;
50769;SDS011;36740;48.698;11.472;2024-01-27T04:58:21;4.53;;;3.28;;
50769;SDS011;36740;48.698;11.472;2024-01-27T05:01:07;7.85;;;4.20;;
50769;SDS011;36740;48.698;11.472;2024-01-27T05:03:53;6.45;;;2.80;;
50769;SDS011;36740;48.698;11.472;2024-01-27T05:06:43;7.70;;;4.00;;
50769;SDS011;36740;48.698;11.472;2024-01-27T05:09:30;12.25;;;4.13;;
50769;SDS011;36740;48.698;11.472;2024-01-27T05:12:16;5.60;;;4.07;;
50769;SDS011;36740;48.698;11.472;2024-01-27T05:15:02;4.50;;;3.38;;
50769;SDS011;36740;48.698;11.472;2024-01-27T05:17:48;7.72;;;3.58;;
50769;SDS011;36740;48.698;11.472;2024-01-27T05:20:34;19.83;;;4.65;;
50769;SDS011;36740;48.698;11.472;2024-01-27T05:23:19;10.52;;;4.78;;
50769;SDS011;36740;48.698;11.472;2024-01-27T05:26:05;6.57;;;3.70;;
50769;SDS011;36740;48.698;11.472;2024-01-27T05:28:52;9.30;;;3.40;;
50769;SDS011;36740;48.698;11.472;2024-01-27T05:31:38;7.03;;;4.03;;
50769;SDS011;36740;48.698;11.472;2024-01-27T05:34:24;7.95;;;4.32;;
50769;SDS011;36740;48.698;11.472;2024-01-27T05:37:10;5.05;;;2.88;;
50769;SDS011;36740;48.698;11.472;2024-01-27T05:39:56;5.57;;;3.10;;
50769;SDS011;36740;48.698;11.472;2024-01-27T05:42:41;4.07;;;2.70;;
50769;SDS011;36740;48.698;11.472;2024-01-27T05:45:28;9.30;;;3.92;;
50769;SDS011;36740;48.698;11.472;2024-01-27T05:48:16;15.50;;;4.88;;
50769;SDS011;36740;48.698;11.472;2024-01-27T05:51:02;9.25;;;4.47;;
50769;SDS011;36740;48.698;11.472;2024-01-27T05:53:49;5.50;;;4.32;;
50769;SDS011;36740;48.698;11.472;2024-01-27T05:56:35;6.57;;;3.33;;
50769;SDS011;36740;48.698;11.472;2024-01-27T05:59:22;9.05;;;4.35;;
50769;SDS011;36740;48.698;11.472;2024-01-27T06:02:07;5.90;;;4.03;;
50769;SDS011;36740;48.698;11.472;2024-01-27T06:04:53;8.63;;;4.25;;
50769;SDS011;36740;48.698;11.472;2024-01-27T06:07:39;7.18;;;3.92;;
50769;SDS011;36740;48.698;11.472;2024-01-27T06:10:25;11.43;;;4.15;;
50769;SDS011;36740;48.698;11.472;2024-01-27T06:13:11;16.48;;;11.25;;
50769;SDS011;36740;48.698;11.472;2024-01-27T06:15:57;18.48;;;4.97;;
50769;SDS011;36740;48.698;11.472;2024-01-27T06:18:43;8.25;;;4.57;;
50769;SDS011;36740;48.698;11.472;2024-01-27T06:21:28;6.45;;;3.53;;
50769;SDS011;36740;48.698;11.472;2024-01-27T06:24:14;8.07;;;3.50;;
50769;SDS011;36740;48.698;11.472;2024-01-27T06:27:00;11.75;;;6.35;;
50769;SDS011;36740;48.698;11.472;2024-01-27T06:29:46;6.38;;;3.58;;
50769;SDS011;36740;48.698;11.472;2024-01-27T06:32:31;10.27;;;3.70;;
50769;SDS011;36740;48.698;11.472;2024-01-27T06:35:17;16.52;;;5.22;;
50769;SDS011;36740;48.698;11.472;2024-01-27T06:38:03;9.48;;;4.80;;
50769;SDS011;36740;48.698;11.472;2024-01-27T06:40:49;10.63;;;4.70;;
50769;SDS011;36740;48.698;11.472;2024-01-27T06:43:35;10.13;;;3.58;;
50769;SDS011;36740;48.698;11.472;2024-01-27T06:46:20;10.13;;;3.75;;
50769;SDS011;36740;48.698;11.472;2024-01-27T06:49:06;11.93;;;5.05;;
50769;SDS011;36740;48.698;11.472;2024-01-27T06:51:52;23.95;;;11.13;;
50769;SDS011;36740;48.698;11.472;2024-01-27T06:54:38;21.58;;;10.98;;
50769;SDS011;36740;48.698;11.472;2024-01-27T06:57:29;14.13;;;7.85;;
50769;SDS011;36740;48.698;11.472;2024-01-27T07:00:15;18.88;;;10.80;;
50769;SDS011;36740;48.698;11.472;2024-01-27T07:03:01;15.85;;;10.48;;
50769;SDS011;36740;48.698;11.472;2024-01-27T07:05:48;24.17;;;13.18;;
50769;SDS011;36740;48.698;11.472;2024-01-27T07:08:36;24.75;;;12.38;;
50769;SDS011;36740;48.698;11.472;2024-01-27T07:11:23;24.75;;;10.15;;
50769;SDS011;36740;48.698;11.472;2024-01-27T07:14:09;13.63;;;9.60;;
50769;SDS011;36740;48.698;11.472;2024-01-27T07:16:55;12.93;;;5.82;;
50769;SDS011;36740;48.698;11.472;2024-01-27T07:19:40;16.75;;;7.35;;
50769;SDS011;36740;48.698;11.472;2024-01-27T07:22:26;14.65;;;6.47;;
50769;SDS011;36740;48.698;11.472;2024-01-27T07:25:12;19.35;;;9.65;;
50769;SDS011;36740;48.698;11.472;2024-01-27T07:27:57;13.32;;;7.57;;
50769;SDS011;36740;48.698;11.472;2024-01-27T07:30:44;13.48;;;7.68;;
50769;SDS011;36740;48.698;11.472;2024-01-27T07:33:31;15.38;;;8.32;;
50769;SDS011;36740;48.698;11.472;2024-01-27T07:36:18;32.25;;;19.35;;
50769;SDS011;36740;48.698;11.472;2024-01-27T07:39:04;27.23;;;17.63;;
50769;SDS011;36740;48.698;11.472;2024-01-27T07:41:51;30.65;;;19.67;;
50769;SDS011;36740;48.698;11.472;2024-01-27T07:44:36;19.73;;;14.00;;
50769;SDS011;36740;48.698;11.472;2024-01-27T07:47:22;33.40;;;22.33;;
50769;SDS011;36740;48.698;11.472;2024-01-27T07:50:08;25.33;;;17.75;;
50769;SDS011;36740;48.698;11.472;2024-01-27T07:52:54;40.58;;;23.98;;
50769;SDS011;36740;48.698;11.472;2024-01-27T07:55:40;19.73;;;12.95;;
50769;SDS011;36740;48.698;11.472;2024-01-27T07:58:26;15.25;;;10.07;;
50769;SDS011;36740;48.698;11.472;2024-01-27T08:01:16;16.83;;;7.28;;
50769;SDS011;36740;48.698;11.472;2024-01-27T08:04:03;10.70;;;6.07;;
50769;SDS011;36740;48.698;11.472;2024-01-27T08:06:49;17.45;;;7.13;;
50769;SDS011;36740;48.698;11.472;2024-01-27T08:09:36;13.57;;;7.72;;
50769;SDS011;36740;48.698;11.472;2024-01-27T08:12:23;14.98;;;8.02;;
50769;SDS011;36740;48.698;11.472;2024-01-27T08:15:09;12.55;;;5.82;;
50769;SDS011;36740;48.698;11.472;2024-01-27T08:17:55;10.60;;;6.95;;
50769;SDS011;36740;48.698;11.472;2024-01-27T08:20:41;13.80;;;6.95;;
50769;SDS011;36740;48.698;11.472;2024-01-27T08:23:27;13.88;;;7.63;;
50769;SDS011;36740;48.698;11.472;2024-01-27T08:26:13;17.88;;;9.73;;
50769;SDS011;36740;48.698;11.472;2024-01-27T08:28:58;18.83;;;8.88;;
50769;SDS011;36740;48.698;11.472;2024-01-27T08:31:44;16.88;;;8.73;;
50769;SDS011;36740;48.698;11.472;2024-01-27T08:34:30;21.20;;;10.43;;
50769;SDS011;36740;48.698;11.472;2024-01-27T08:37:19;33.78;;;7.88;;
50769;SDS011;36740;48.698;11.472;2024-01-27T08:40:06;18.60;;;7.32;;
50769;SDS011;36740;48.698;11.472;2024-01-27T08:42:53;14.13;;;7.57;;
50769;SDS011;36740;48.698;11.472;2024-01-27T08:45:38;12.32;;;7.53;;
50769;SDS011;36740;48.698;11.472;2024-01-27T08:48:26;14.88;;;6.22;;
50769;SDS011;36740;48.698;11.472;2024-01-27T08:51:12;17.67;;;8.90;;
50769;SDS011;36740;48.698;11.472;2024-01-27T08:53:58;12.00;;;6.00;;
50769;SDS011;36740;48.698;11.472;2024-01-27T08:56:43;15.13;;;7.63;;
50769;SDS011;36740;48.698;11.472;2024-01-27T08:59:29;9.07;;;4.75;;
50769;SDS011;36740;48.698;11.472;2024-01-27T09:02:15;12.13;;;5.47;;
50769;SDS011;36740;48.698;11.472;2024-01-27T09:05:01;11.27;;;6.45;;
50769;SDS011;36740;48.698;11.472;2024-01-27T09:07:46;12.15;;;5.05;;
50769;SDS011;36740;48.698;11.472;2024-01-27T09:10:32;11.02;;;5.68;;
50769;SDS011;36740;48.698;11.472;2024-01-27T09:13:18;5.75;;;3.75;;
50769;SDS011;36740;48.698;11.472;2024-01-27T09:16:04;8.40;;;4.95;;
50769;SDS011;36740;48.698;11.472;2024-01-27T09:18:51;14.13;;;5.10;;
50769;SDS011;36740;48.698;11.472;2024-01-27T09:21:37;8.07;;;5.53;;
50769;SDS011;36740;48.698;11.472;2024-01-27T09:24:23;11.05;;;5.93;;
50769;SDS011;36740;48.698;11.472;2024-01-27T09:27:09;15.65;;;4.78;;
50769;SDS011;36740;48.698;11.472;2024-01-27T09:29:55;9.60;;;4.75;;
50769;SDS011;36740;48.698;11.472;2024-01-27T09:32:40;14.35;;;6.32;;
50769;SDS011;36740;48.698;11.472;2024-01-27T09:35:26;9.77;;;4.00;;
50769;SDS011;36740;48.698;11.472;2024-01-27T09:38:13;17.00;;;6.20;;
50769;SDS011;36740;48.698;11.472;2024-01-27T09:41:00;12.40;;;7.45;;
50769;SDS011;36740;48.698;11.472;2024-01-27T09:43:47;10.20;;;5.93;;
50769;SDS011;36740;48.698;11.472;2024-01-27T09:46:33;10.18;;;4.70;;
50769;SDS011;36740;48.698;11.472;2024-01-27T09:49:20;10.90;;;5.45;;
50769;SDS011;36740;48.698;11.472;2024-01-27T09:52:09;11.65;;;6.10;;
50769;SDS011;36740;48.698;11.472;2024-01-27T09:54:55;11.57;;;6.05;;
50769;SDS011;36740;48.698;11.472;2024-01-27T09:57:40;6.55;;;4.30;;
50769;SDS011;36740;48.698;11.472;2024-01-27T10:00:27;6.93;;;3.72;;
50769;SDS011;36740;48.698;11.472;2024-01-27T10:03:13;9.55;;;5.60;;
50769;SDS011;36740;48.698;11.472;2024-01-27T10:05:59;5.50;;;3.20;;
50769;SDS011;36740;48.698;11.472;2024-01-27T10:08:51;9.43;;;3.47;;
50769;SDS011;36740;48.698;11.472;2024-01-27T10:11:38;11.52;;;4.55;;
50769;SDS011;36740;48.698;11.472;2024-01-27T10:14:37;13.75;;;5.75;;
50769;SDS011;36740;48.698;11.472;2024-01-27T10:17:26;14.00;;;4.75;;
50769;SDS011;36740;48.698;11.472;2024-01-27T10:20:17;7.78;;;4.50;;
50769;SDS011;36740;48.698;11.472;2024-01-27T10:23:12;8.05;;;4.22;;
50769;SDS011;36740;48.698;11.472;2024-01-27T10:26:04;8.05;;;3.58;;
50769;SDS011;36740;48.698;11.472;2024-01-27T10:28:59;6.60;;;3.67;;
50769;SDS011;36740;48.698;11.472;2024-01-27T10:31:45;10.23;;;4.45;;
50769;SDS011;36740;48.698;11.472;2024-01-27T10:34:30;10.77;;;3.72;;
50769;SDS011;36740;48.698;11.472;2024-01-27T10:37:23;8.90;;;5.38;;
50769;SDS011;36740;48.698;11.472;2024-01-27T10:40:09;10.30;;;4.20;;
50769;SDS011;36740;48.698;11.472;2024-01-27T10:43:05;15.85;;;4.85;;
50769;SDS011;36740;48.698;11.472;2024-01-27T10:45:51;6.25;;;4.10;;
50769;SDS011;36740;48.698;11.472;2024-01-27T10:48:38;9.38;;;3.35;;
50769;SDS011;36740;48.698;11.472;2024-01-27T10:51:30;15.48;;;4.78;;
50769;SDS011;36740;48.698;11.472;2024-01-27T10:54:23;11.60;;;4.75;;
50769;SDS011;36740;48.698;11.472;2024-01-27T10:57:10;7.90;;;4.43;;
50769;SDS011;36740;48.698;11.472;2024-01-27T10:59:58;11.68;;;4.88;;
50769;SDS011;36740;48.698;11.472;2024-01-27T11:02:46;10.65;;;5.35;;
50769;SDS011;36740;48.698;11.472;2024-01-27T11:05:38;6.15;;;3.20;;
50769;SDS011;36740;48.698;11.472;2024-01-27T11:08:35;5.38;;;4.22;;
50769;SDS011;36740;48.698;11.472;2024-01-27T11:11:31;6.50;;;4.38;;
50769;SDS011;36740;48.698;11.472;2024-01-27T11:14:17;8.07;;;5.18;;
50769;SDS011;36740;48.698;11.472;2024-01-27T11:17:03;8.57;;;3.45;;
50769;SDS011;36740;48.698;11.472;2024-01-27T11:19:50;8.68;;;4.38;;
50769;SDS011;36740;48.698;11.472;2024-01-27T11:22:37;11.70;;;4.55;;
50769;SDS011;36740;48.698;11.472;2024-01-27T11:25:29;12.05;;;4.70;;
50769;SDS011;36740;48.698;11.472;2024-01-27T11:28:25;11.35;;;4.95;;
50769;SDS011;36740;48.698;11.472;2024-01-27T11:31:15;8.90;;;4.03;;
50769;SDS011;36740;48.698;11.472;2024-01-27T11:34:04;10.32;;;4.50;;
50769;SDS011;36740;48.698;11.472;2024-01-27T11:36:58;9.38;;;4.93;;
50769;SDS011;36740;48.698;11.472;2024-01-27T11:39:49;12.90;;;4.97;;
50769;SDS011;36740;48.698;11.472;2024-01-27T11:42:35;18.05;;;5.93;;
50769;SDS011;36740;48.698;11.472;2024-01-27T11:45:21;12.02;;;4.00;;
50769;SDS011;36740;48.698;11.472;2024-01-27T11:48:08;9.45;;;4.03;;
50769;SDS011;36740;48.698;11.472;2024-01-27T11:51:08;11.80;;;6.15;;
50769;SDS011;36740;48.698;11.472;2024-01-27T11:53:58;16.15;;;4.38;;
50769;SDS011;36740;48.698;11.472;2024-01-27T11:56:44;10.02;;;3.58;;
50769;SDS011;36740;48.698;11.472;2024-01-27T11:59:33;6.28;;;4.22;;
50769;SDS011;36740;48.698;11.472;2024-01-27T12:02:23;13.65;;;4.40;;
50769;SDS011;36740;48.698;11.472;2024-01-27T12:05:10;8.60;;;4.50;;
50769;SDS011;36740;48.698;11.472;2024-01-27T12:07:57;14.63;;;3.80;;
50769;SDS011;36740;48.698;11.472;2024-01-27T12:10:43;13.95;;;5.13;;
50769;SDS011;36740;48.698;11.472;2024-01-27T12:13:30;9.63;;;4.82;;
50769;SDS011;36740;48.698;11.472;2024-01-27T12:16:16;5.43;;;3.25;;
50769;SDS011;36740;48.698;11.472;2024-01-27T12:19:03;11.27;;;6.05;;
50769;SDS011;36740;48.698;11.472;2024-01-27T12:21:49;13.75;;;6.93;;
50769;SDS011;36740;48.698;11.472;2024-01-27T12:24:35;8.32;;;4.55;;
50769;SDS011;36740;48.698;11.472;2024-01-27T12:27:21;11.32;;;6.30;;
50769;SDS011;36740;48.698;11.472;2024-01-27T12:30:13;16.42;;;4.15;;
50769;SDS011;36740;48.698;11.472;2024-01-27T12:33:00;10.52;;;4.03;;
50769;SDS011;36740;48.698;11.472;2024-01-27T12:35:52;7.10;;;4.00;;
50769;SDS011;36740;48.698;11.472;2024-01-27T12:39:02;12.15;;;4.28;;
50769;SDS011;36740;48.698;11.472;2024-01-27T12:41:50;5.57;;;3.60;;
50769;SDS011;36740;48.698;11.472;2024-01-27T12:44:39;8.02;;;4.35;;
50769;SDS011;36740;48.698;11.472;2024-01-27T12:47:26;8.48;;;5.32;;
50769;SDS011;36740;48.698;11.472;2024-01-27T12:50:12;11.68;;;4.75;;
50769;SDS011;36740;48.698;11.472;2024-01-27T12:53:07;7.00;;;3.33;;
50769;SDS011;36740;48.698;11.472;2024-01-27T12:55:53;5.13;;;4.10;;
50769;SDS011;36740;48.698;11.472;2024-01-27T12:58:41;12.75;;;5.28;;
50769;SDS011;36740;48.698;11.472;2024-01-27T13:01:29;6.18;;;3.97;;
50769;SDS011;36740;48.698;11.472;2024-01-27T13:04:15;8.70;;;3.97;;
50769;SDS011;36740;48.698;11.472;2024-01-27T13:07:01;6.00;;;4.68;;
50769;SDS011;36740;48.698;11.472;2024-01-27T13:09:47;7.90;;;3.47;;
50769;SDS011;36740;48.698;11.472;2024-01-27T13:12:33;6.65;;;3.42;;
50769;SDS011;36740;48.698;11.472;2024-01-27T13:15:34;12.32;;;5.15;;
50769;SDS011;36740;48.698;11.472;2024-01-27T13:18:28;21.25;;;6.90;;
50769;SDS011;36740;48.698;11.472;2024-01-27T13:25:54;5.95;;;4.38;;
50769;SDS011;36740;48.698;11.472;2024-01-27T13:29:19;14.43;;;5.40;;
50769;SDS011;36740;48.698;11.472;2024-01-27T13:32:05;9.15;;;3.95;;
50769;SDS011;36740;48.698;11.472;2024-01-27T13:34:56;8.18;;;4.50;;
50769;SDS011;36740;48.698;11.472;2024-01-27T13:37:46;14.02;;;4.00;;
50769;SDS011;36740;48.698;11.472;2024-01-27T13:40:33;9.63;;;4.63;;
50769;SDS011;36740;48.698;11.472;2024-01-27T13:43:20;14.90;;;3.35;;
50769;SDS011;36740;48.698;11.472;2024-01-27T13:46:25;10.82;;;5.18;;
50769;SDS011;36740;48.698;11.472;2024-01-27T13:49:19;12.43;;;6.10;;
50769;SDS011;36740;48.698;11.472;2024-01-27T13:52:18;7.88;;;3.67;;
50769;SDS011;36740;48.698;11.472;2024-01-27T13:55:07;9.25;;;4.32;;
50769;SDS011;36740;48.698;11.472;2024-01-27T13:58:02;7.18;;;4.38;;
50769;SDS011;36740;48.698;11.472;2024-01-27T14:00:48;13.35;;;7.47;;
50769;SDS011;36740;48.698;11.472;2024-01-27T14:03:39;8.77;;;2.70;;
50769;SDS011;36740;48.698;11.472;2024-01-27T14:10:12;10.52;;;3.67;;
50769;SDS011;36740;48.698;11.472;2024-01-27T14:13:26;11.18;;;3.70;;
50769;SDS011;36740;48.698;11.472;2024-01-27T14:16:17;15.32;;;5.55;;
50769;SDS011;36740;48.698;11.472;2024-01-27T14:19:10;16.33;;;4.63;;
50769;SDS011;36740;48.698;11.472;2024-01-27T14:22:09;10.82;;;5.43;;
50769;SDS011;36740;48.698;11.472;2024-01-27T14:24:55;13.45;;;5.30;;
50769;SDS011;36740;48.698;11.472;2024-01-27T14:31:50;11.57;;;6.00;;
50769;SDS011;36740;48.698;11.472;2024-01-27T14:34:41;7.20;;;4.30;;
50769;SDS011;36740;48.698;11.472;2024-01-27T14:37:30;8.70;;;4.40;;
50769;SDS011;36740;48.698;11.472;2024-01-27T14:43:51;9.60;;;3.92;;
50769;SDS011;36740;48.698;11.472;2024-01-27T14:46:38;10.50;;;4.43;;
50769;SDS011;36740;48.698;11.472;2024-01-27T14:49:25;24.27;;;4.85;;
50769;SDS011;36740;48.698;11.472;2024-01-27T14:52:19;8.55;;;4.97;;
50769;SDS011;36740;48.698;11.472;2024-01-27T14:55:11;9.45;;;3.75;;
50769;SDS011;36740;48.698;11.472;2024-01-27T15:05:03;8.13;;;4.90;;
50769;SDS011;36740;48.698;11.472;2024-01-27T15:07:53;6.68;;;3.92;;
50769;SDS011;36740;48.698;11.472;2024-01-27T15:10:48;11.82;;;4.45;;
50769;SDS011;36740;48.698;11.472;2024-01-27T15:14:04;8.63;;;4.05;;
50769;SDS011;36740;48.698;11.472;2024-01-27T15:16:52;9.23;;;4.18;;
50769;SDS011;36740;48.698;11.472;2024-01-27T15:19:42;14.30;;;4.10;;
50769;SDS011;36740;48.698;11.472;2024-01-27T15:22:28;14.85;;;3.67;;
50769;SDS011;36740;48.698;11.472;2024-01-27T15:25:21;16.23;;;5.95;;
50769;SDS011;36740;48.698;11.472;2024-01-27T15:28:19;5.70;;;3.38;;
50769;SDS011;36740;48.698;11.472;2024-01-27T15:31:17;10.60;;;5.05;;
50769;SDS011;36740;48.698;11.472;2024-01-27T15:34:05;20.20;;;6.80;;
50769;SDS011;36740;48.698;11.472;2024-01-27T15:36:53;20.80;;;6.22;;
50769;SDS011;36740;48.698;11.472;2024-01-27T15:40:28;12.73;;;4.60;;
50769;SDS011;36740;48.698;11.472;2024-01-27T15:43:15;8.15;;;5.00;;
50769;SDS011;36740;48.698;11.472;2024-01-27T15:46:01;14.20;;;8.80;;
50769;SDS011;36740;48.698;11.472;2024-01-27T15:48:51;14.10;;;4.67;;
50769;SDS011;36740;48.698;11.472;2024-01-27T15:51:37;7.57;;;2.92;;
50769;SDS011;36740;48.698;11.472;2024-01-27T15:54:23;14.85;;;3.45;;
50769;SDS011;36740;48.698;11.472;2024-01-27T15:57:09;9.20;;;3.20;;
50769;SDS011;36740;48.698;11.472;2024-01-27T15:59:55;13.55;;;4.38;;
50769;SDS011;36740;48.698;11.472;2024-01-27T16:02:40;4.90;;;3.22;;
50769;SDS011;36740;48.698;11.472;2024-01-27T16:05:26;5.82;;;2.80;;
50769;SDS011;36740;48.698;11.472;2024-01-27T16:08:12;4.70;;;2.65;;
50769;SDS011;36740;48.698;11.472;2024-01-27T16:10:58;13.20;;;4.88;;
50769;SDS011;36740;48.698;11.472;2024-01-27T16:13:44;10.70;;;5.80;;
50769;SDS011;36740;48.698;11.472;2024-01-27T16:16:30;12.52;;;7.85;;
50769;SDS011;36740;48.698;11.472;2024-01-27T16:19:15;25.45;;;9.27;;
50769;SDS011;36740;48.698;11.472;2024-01-27T16:22:01;11.15;;;5.05;;
50769;SDS011;36740;48.698;11.472;2024-01-27T16:24:47;10.57;;;4.25;;
50769;SDS011;36740;48.698;11.472;2024-01-27T16:27:33;18.15;;;6.53;;
50769;SDS011;36740;48.698;11.472;2024-01-27T16:30:20;10.38;;;5.10;;
50769;SDS011;36740;48.698;11.472;2024-01-27T16:33:06;7.78;;;4.15;;
50769;SDS011;36740;48.698;11.472;2024-01-27T16:35:52;8.57;;;4.50;;
50769;SDS011;36740;48.698;11.472;2024-01-27T16:38:38;13.27;;;5.18;;
50769;SDS011;36740;48.698;11.472;2024-01-27T16:41:25;6.32;;;3.35;;
50769;SDS011;36740;48.698;11.472;2024-01-27T16:44:10;4.85;;;3.78;;
50769;SDS011;36740;48.698;11.472;2024-01-27T16:46:57;7.22;;;3.53;;
50769;SDS011;36740;48.698;11.472;2024-01-27T16:49:42;5.82;;;3.40;;
50769;SDS011;36740;48.698;11.472;2024-01-27T16:52:28;7.20;;;3.17;;